<?xml version="1.0" encoding="UTF-8" standalone="no" ?>
<gpx xmlns="http://www.topografix.com/GPX/1/1" xmlns:xsi="http://www.w3.org/2001/XMLSchema-instance" xsi:schemaLocation="http://www.topografix.com/GPX/1/1 http://www.topografix.com/GPX/1/1/gpx.xsd" version="1.1" creator="VisuGPX - https://www.visugpx.com">
  <metadata>
    <name>12-Sangle de la Tête de Lion</name>
    <desc><![CDATA[

]]></desc>
  </metadata>
  <trk>
    <name><![CDATA[12-Sangle de la Tête de Lion]]></name>
    <trkseg>
      <trkpt lat="45.45473" lon="5.9226">
        <ele>1849</ele>
        <time>2020-07-28T14:57:10Z</time>
      </trkpt>
      <trkpt lat="45.45454" lon="5.92269">
        <ele>1848</ele>
        <time>2020-07-28T14:57:44Z</time>
      </trkpt>
      <trkpt lat="45.45437" lon="5.92257">
        <ele>1846</ele>
        <time>2020-07-28T14:58:10Z</time>
      </trkpt>
      <trkpt lat="45.4542" lon="5.92245">
        <ele>1841</ele>
        <time>2020-07-28T14:58:33Z</time>
      </trkpt>
      <trkpt lat="45.45401" lon="5.92255">
        <ele>1840</ele>
        <time>2020-07-28T14:58:57Z</time>
      </trkpt>
      <trkpt lat="45.45386" lon="5.92235">
        <ele>1837</ele>
        <time>2020-07-28T14:59:21Z</time>
      </trkpt>
      <trkpt lat="45.45366" lon="5.9223">
        <ele>1836</ele>
        <time>2020-07-28T14:59:47Z</time>
      </trkpt>
      <trkpt lat="45.45346" lon="5.92223">
        <ele>1835</ele>
        <time>2020-07-28T15:00:52Z</time>
      </trkpt>
      <trkpt lat="45.45328" lon="5.92206">
        <ele>1833</ele>
        <time>2020-07-28T15:01:09Z</time>
      </trkpt>
      <trkpt lat="45.4531" lon="5.92192">
        <ele>1832</ele>
        <time>2020-07-28T15:01:36Z</time>
      </trkpt>
      <trkpt lat="45.45294" lon="5.92176">
        <ele>1832</ele>
        <time>2020-07-28T15:01:56Z</time>
      </trkpt>
      <trkpt lat="45.45273" lon="5.92169">
        <ele>1832</ele>
        <time>2020-07-28T15:02:17Z</time>
      </trkpt>
      <trkpt lat="45.45256" lon="5.92153">
        <ele>1830</ele>
        <time>2020-07-28T15:02:41Z</time>
      </trkpt>
      <trkpt lat="45.45237" lon="5.92141">
        <ele>1838</ele>
        <time>2020-07-28T15:03:09Z</time>
      </trkpt>
      <trkpt lat="45.45225" lon="5.9212">
        <ele>1840</ele>
        <time>2020-07-28T15:03:39Z</time>
      </trkpt>
      <trkpt lat="45.45218" lon="5.92091">
        <ele>1841</ele>
        <time>2020-07-28T15:03:59Z</time>
      </trkpt>
      <trkpt lat="45.45177" lon="5.9206">
        <ele>1837</ele>
        <time>2020-07-28T15:06:04Z</time>
      </trkpt>
      <trkpt lat="45.4516" lon="5.92064">
        <ele>1844</ele>
        <time>2020-07-28T15:07:06Z</time>
      </trkpt>
      <trkpt lat="45.45154" lon="5.92067">
        <ele>1844</ele>
      </trkpt>
      <trkpt lat="45.45105" lon="5.92103">
        <ele>1849</ele>
      </trkpt>
      <trkpt lat="45.45024" lon="5.92097">
        <ele>1880</ele>
      </trkpt>
      <trkpt lat="45.44965" lon="5.92061">
        <ele>1897</ele>
      </trkpt>
      <trkpt lat="45.44868" lon="5.91998">
        <ele>1903</ele>
      </trkpt>
      <trkpt lat="45.44789" lon="5.91973">
        <ele>1917</ele>
      </trkpt>
      <trkpt lat="45.44722" lon="5.91973">
        <ele>1906</ele>
      </trkpt>
      <trkpt lat="45.44649" lon="5.92025">
        <ele>1902</ele>
      </trkpt>
      <trkpt lat="45.44638" lon="5.92102">
        <ele>1897</ele>
      </trkpt>
      <trkpt lat="45.4468" lon="5.9224">
        <ele>1877</ele>
      </trkpt>
    </trkseg>
  </trk>
</gpx>